sensor_id;sensor_type;location;lat;lon;timestamp;pressure;altitude;pressure_sealevel;temperature;humidity
61357;BME280;47227;46.752;23.576;2023-05-21T02:33:07;96578.84;;;11.14;85.34
61357;BME280;47227;46.752;23.576;2023-05-21T02:35:36;96579.38;;;11.16;85.20
61357;BME280;47227;46.752;23.576;2023-05-21T02:38:05;96573.84;;;11.16;84.68
61357;BME280;47227;46.752;23.576;2023-05-21T02:40:35;96571.89;;;11.16;84.54
61357;BME280;47227;46.752;23.576;2023-05-21T02:43:03;96567.36;;;11.15;84.09
61357;BME280;47227;46.752;23.576;2023-05-21T02:45:31;96567.83;;;11.15;83.81
61357;BME280;47227;46.752;23.576;2023-05-21T02:47:59;96562.27;;;11.14;83.61
61357;BME280;47227;46.752;23.576;2023-05-21T02:50:29;96562.73;;;11.15;83.41
61357;BME280;47227;46.752;23.576;2023-05-21T02:52:58;96564.84;;;11.16;83.20
61357;BME280;47227;46.752;23.576;2023-05-21T02:55:26;96567.86;;;11.16;82.96
61357;BME280;47227;46.752;23.576;2023-05-21T02:57:54;96567.08;;;11.18;83.00
61357;BME280;47227;46.752;23.576;2023-05-21T03:00:22;96570.80;;;11.18;82.76
61357;BME280;47227;46.752;23.576;2023-05-21T03:02:50;96571.76;;;11.18;82.71
61357;BME280;47227;46.752;23.576;2023-05-21T03:05:18;96572.23;;;11.19;82.70
61357;BME280;47227;46.752;23.576;2023-05-21T03:07:46;96574.21;;;11.17;82.43
61357;BME280;47227;46.752;23.576;2023-05-21T03:10:14;96573.10;;;11.17;82.29
61357;BME280;47227;46.752;23.576;2023-05-21T03:12:43;96570.88;;;11.15;82.34
61357;BME280;47227;46.752;23.576;2023-05-21T03:15:38;96568.98;;;11.15;82.27
61357;BME280;47227;46.752;23.576;2023-05-21T03:18:09;96570.35;;;11.15;82.44
61357;BME280;47227;46.752;23.576;2023-05-21T03:20:38;96567.06;;;11.16;82.24
61357;BME280;47227;46.752;23.576;2023-05-21T03:23:11;96564.48;;;11.19;82.59
61357;BME280;47227;46.752;23.576;2023-05-21T03:25:43;96562.68;;;11.23;82.68
61357;BME280;47227;46.752;23.576;2023-05-21T03:28:13;96562.02;;;11.24;82.68
61357;BME280;47227;46.752;23.576;2023-05-21T03:30:44;96563.08;;;11.26;82.59
61357;BME280;47227;46.752;23.576;2023-05-21T03:33:30;96559.38;;;11.27;82.56
61357;BME280;47227;46.752;23.576;2023-05-21T03:35:58;96561.95;;;11.33;82.94
61357;BME280;47227;46.752;23.576;2023-05-21T03:38:27;96561.17;;;11.29;84.57
61357;BME280;47227;46.752;23.576;2023-05-21T03:40:55;96559.52;;;11.06;86.62
61357;BME280;47227;46.752;23.576;2023-05-21T03:43:24;96560.50;;;10.97;85.98
61357;BME280;47227;46.752;23.576;2023-05-21T03:45:53;96565.73;;;10.92;86.21
61357;BME280;47227;46.752;23.576;2023-05-21T03:48:35;96571.45;;;10.79;88.34
61357;BME280;47227;46.752;23.576;2023-05-21T03:51:03;96566.71;;;10.75;87.99
61357;BME280;47227;46.752;23.576;2023-05-21T03:53:32;96568.13;;;10.71;88.65
61357;BME280;47227;46.752;23.576;2023-05-21T03:56:02;96563.86;;;10.66;89.39
61357;BME280;47227;46.752;23.576;2023-05-21T03:58:31;96563.98;;;10.64;89.54
61357;BME280;47227;46.752;23.576;2023-05-21T04:00:59;96566.00;;;10.62;89.63
61357;BME280;47227;46.752;23.576;2023-05-21T04:03:30;96569.17;;;10.60;89.43
61357;BME280;47227;46.752;23.576;2023-05-21T04:06:06;96567.90;;;10.63;88.22
61357;BME280;47227;46.752;23.576;2023-05-21T04:08:58;96569.84;;;10.67;87.37
61357;BME280;47227;46.752;23.576;2023-05-21T04:12:31;96569.27;;;10.73;88.14
61357;BME280;47227;46.752;23.576;2023-05-21T04:16:00;96568.59;;;10.81;87.76
61357;BME280;47227;46.752;23.576;2023-05-21T04:26:18;96574.98;;;11.06;87.71
61357;BME280;47227;46.752;23.576;2023-05-21T04:29:34;96574.52;;;11.15;87.67
61357;BME280;47227;46.752;23.576;2023-05-21T04:33:01;96574.46;;;11.24;87.17
61357;BME280;47227;46.752;23.576;2023-05-21T04:36:12;96571.88;;;11.36;86.71
61357;BME280;47227;46.752;23.576;2023-05-21T04:39:14;96577.42;;;11.43;86.96
61357;BME280;47227;46.752;23.576;2023-05-21T04:42:49;96579.05;;;11.48;87.27
61357;BME280;47227;46.752;23.576;2023-05-21T04:46:24;96582.46;;;11.52;86.75
61357;BME280;47227;46.752;23.576;2023-05-21T04:49:26;96584.91;;;11.63;86.36
61357;BME280;47227;46.752;23.576;2023-05-21T04:52:11;96583.17;;;11.74;86.15
61357;BME280;47227;46.752;23.576;2023-05-21T04:55:10;96577.88;;;11.83;85.69
61357;BME280;47227;46.752;23.576;2023-05-21T04:58:21;96576.56;;;11.93;85.35
61357;BME280;47227;46.752;23.576;2023-05-21T05:01:10;96576.83;;;12.02;84.81
61357;BME280;47227;46.752;23.576;2023-05-21T05:04:27;96572.91;;;12.12;84.68
61357;BME280;47227;46.752;23.576;2023-05-21T05:07:25;96572.14;;;12.20;84.56
61357;BME280;47227;46.752;23.576;2023-05-21T05:10:30;96573.91;;;12.29;84.45
61357;BME280;47227;46.752;23.576;2023-05-21T05:13:40;96572.13;;;12.39;84.33
61357;BME280;47227;46.752;23.576;2023-05-21T05:16:23;96567.06;;;12.49;84.07
61357;BME280;47227;46.752;23.576;2023-05-21T05:19:40;96568.95;;;12.63;84.00
61357;BME280;47227;46.752;23.576;2023-05-21T05:23:08;96564.98;;;12.85;83.63
61357;BME280;47227;46.752;23.576;2023-05-21T05:26:20;96562.67;;;13.03;83.50
61357;BME280;47227;46.752;23.576;2023-05-21T05:29:36;96560.33;;;13.25;83.24
61357;BME280;47227;46.752;23.576;2023-05-21T05:32:37;96563.60;;;13.50;83.20
61357;BME280;47227;46.752;23.576;2023-05-21T05:35:09;96558.88;;;13.69;83.16
61357;BME280;47227;46.752;23.576;2023-05-21T05:37:58;96563.33;;;13.84;82.32
61357;BME280;47227;46.752;23.576;2023-05-21T05:41:08;96562.37;;;14.07;82.37
61357;BME280;47227;46.752;23.576;2023-05-21T05:44:06;96554.84;;;14.25;82.31
61357;BME280;47227;46.752;23.576;2023-05-21T05:47:53;96552.78;;;14.42;81.73
61357;BME280;47227;46.752;23.576;2023-05-21T05:51:08;96553.45;;;14.39;79.45
61357;BME280;47227;46.752;23.576;2023-05-21T05:54:31;96554.84;;;14.36;79.00
61357;BME280;47227;46.752;23.576;2023-05-21T05:57:46;96550.09;;;14.42;79.09
61357;BME280;47227;46.752;23.576;2023-05-21T06:01:16;96550.11;;;14.57;79.64
61357;BME280;47227;46.752;23.576;2023-05-21T06:04:06;96545.30;;;14.68;79.57
61357;BME280;47227;46.752;23.576;2023-05-21T06:06:56;96543.21;;;14.79;79.33
61357;BME280;47227;46.752;23.576;2023-05-21T06:09:52;96549.23;;;14.86;78.74
61357;BME280;47227;46.752;23.576;2023-05-21T06:13:07;96547.70;;;14.84;77.18
61357;BME280;47227;46.752;23.576;2023-05-21T06:17:00;96547.20;;;14.95;78.16
61357;BME280;47227;46.752;23.576;2023-05-21T06:20:30;96548.02;;;15.06;78.19
61357;BME280;47227;46.752;23.576;2023-05-21T06:24:03;96547.75;;;15.21;77.99
61357;BME280;47227;46.752;23.576;2023-05-21T06:27:00;96546.92;;;15.31;76.53
61357;BME280;47227;46.752;23.576;2023-05-21T06:30:54;96544.42;;;15.47;75.86
61357;BME280;47227;46.752;23.576;2023-05-21T06:34:10;96542.41;;;15.60;73.57
61357;BME280;47227;46.752;23.576;2023-05-21T06:38:09;96539.89;;;15.81;73.51
61357;BME280;47227;46.752;23.576;2023-05-21T06:41:11;96536.93;;;16.05;74.48
61357;BME280;47227;46.752;23.576;2023-05-21T06:44:54;96528.15;;;16.31;73.99
61357;BME280;47227;46.752;23.576;2023-05-21T06:48:39;96523.52;;;16.54;70.35
61357;BME280;47227;46.752;23.576;2023-05-21T06:51:30;96522.39;;;16.57;67.55
61357;BME280;47227;46.752;23.576;2023-05-21T06:54:41;96516.74;;;16.65;66.68
61357;BME280;47227;46.752;23.576;2023-05-21T06:58:03;96517.87;;;16.77;66.09
61357;BME280;47227;46.752;23.576;2023-05-21T07:01:07;96517.83;;;16.97;67.40
61357;BME280;47227;46.752;23.576;2023-05-21T07:04:13;96508.20;;;17.14;66.99
61357;BME280;47227;46.752;23.576;2023-05-21T07:07:07;96504.80;;;17.18;65.14
61357;BME280;47227;46.752;23.576;2023-05-21T07:10:35;96502.98;;;17.36;66.72
61357;BME280;47227;46.752;23.576;2023-05-21T07:13:41;96497.04;;;17.50;65.22
61357;BME280;47227;46.752;23.576;2023-05-21T07:16:35;96496.05;;;17.64;66.11
61357;BME280;47227;46.752;23.576;2023-05-21T07:19:46;96494.38;;;17.79;66.46
61357;BME280;47227;46.752;23.576;2023-05-21T07:22:48;96490.33;;;17.88;64.02
61357;BME280;47227;46.752;23.576;2023-05-21T07:25:46;96491.10;;;17.97;63.87
61357;BME280;47227;46.752;23.576;2023-05-21T07:28:39;96490.40;;;18.11;64.73
61357;BME280;47227;46.752;23.576;2023-05-21T07:31:11;96489.16;;;18.25;64.71
61357;BME280;47227;46.752;23.576;2023-05-21T07:34:16;96487.17;;;18.37;62.07
61357;BME280;47227;46.752;23.576;2023-05-21T07:37:06;96490.27;;;18.42;61.36
61357;BME280;47227;46.752;23.576;2023-05-21T07:40:36;96489.64;;;18.44;60.72
61357;BME280;47227;46.752;23.576;2023-05-21T07:43:41;96491.22;;;18.57;60.87
61357;BME280;47227;46.752;23.576;2023-05-21T07:46:35;96491.45;;;18.62;59.93
61357;BME280;47227;46.752;23.576;2023-05-21T07:50:04;96489.00;;;18.63;59.95
61357;BME280;47227;46.752;23.576;2023-05-21T07:53:04;96488.56;;;18.73;59.99
61357;BME280;47227;46.752;23.576;2023-05-21T07:56:17;96487.70;;;18.83;60.34
61357;BME280;47227;46.752;23.576;2023-05-21T07:58:50;96485.29;;;18.98;60.03
61357;BME280;47227;46.752;23.576;2023-05-21T08:02:25;96482.92;;;19.12;59.70
61357;BME280;47227;46.752;23.576;2023-05-21T08:06:28;96481.95;;;19.37;61.39
61357;BME280;47227;46.752;23.576;2023-05-21T08:10:03;96476.92;;;19.64;61.36
61357;BME280;47227;46.752;23.576;2023-05-21T08:13:47;96477.58;;;19.90;58.19
61357;BME280;47227;46.752;23.576;2023-05-21T08:16:49;96478.02;;;20.07;57.94
61357;BME280;47227;46.752;23.576;2023-05-21T08:20:28;96476.00;;;20.29;58.96
61357;BME280;47227;46.752;23.576;2023-05-21T08:23:34;96471.40;;;20.40;55.32
61357;BME280;47227;46.752;23.576;2023-05-21T08:26:41;96473.32;;;20.51;54.47
61357;BME280;47227;46.752;23.576;2023-05-21T08:29:48;96471.23;;;20.64;55.25
61357;BME280;47227;46.752;23.576;2023-05-21T08:33:21;96467.97;;;20.77;52.84
61357;BME280;47227;46.752;23.576;2023-05-21T08:36:06;96471.04;;;20.94;53.90
61357;BME280;47227;46.752;23.576;2023-05-21T08:38:50;96469.79;;;20.95;51.78
61357;BME280;47227;46.752;23.576;2023-05-21T08:42:03;96472.73;;;20.99;50.88
61357;BME280;47227;46.752;23.576;2023-05-21T08:44:36;96467.14;;;21.13;52.09
61357;BME280;47227;46.752;23.576;2023-05-21T08:47:10;96464.88;;;21.22;50.20
61357;BME280;47227;46.752;23.576;2023-05-21T08:49:41;96467.06;;;21.27;50.96
61357;BME280;47227;46.752;23.576;2023-05-21T08:52:10;96469.26;;;21.46;51.50
61357;BME280;47227;46.752;23.576;2023-05-21T08:54:40;96466.92;;;21.56;48.59
61357;BME280;47227;46.752;23.576;2023-05-21T08:57:08;96465.04;;;21.55;47.22
61357;BME280;47227;46.752;23.576;2023-05-21T08:59:36;96469.85;;;21.66;48.08
61357;BME280;47227;46.752;23.576;2023-05-21T09:02:07;96468.27;;;21.81;47.04
61357;BME280;47227;46.752;23.576;2023-05-21T09:04:40;96468.60;;;21.75;46.13
61357;BME280;47227;46.752;23.576;2023-05-21T09:07:09;96469.08;;;21.72;46.28
61357;BME280;47227;46.752;23.576;2023-05-21T09:10:03;96466.84;;;21.91;48.00
61357;BME280;47227;46.752;23.576;2023-05-21T09:12:33;96466.62;;;22.09;48.10
61357;BME280;47227;46.752;23.576;2023-05-21T09:15:02;96465.54;;;22.19;47.63
61357;BME280;47227;46.752;23.576;2023-05-21T09:17:33;96464.44;;;22.37;48.05
61357;BME280;47227;46.752;23.576;2023-05-21T09:20:12;96469.27;;;22.63;48.62
61357;BME280;47227;46.752;23.576;2023-05-21T09:22:49;96471.30;;;22.89;48.83
61357;BME280;47227;46.752;23.576;2023-05-21T09:25:22;96473.62;;;23.10;47.53
61357;BME280;47227;46.752;23.576;2023-05-21T09:27:50;96472.96;;;23.27;46.40
61357;BME280;47227;46.752;23.576;2023-05-21T09:30:18;96468.14;;;23.42;45.88
61357;BME280;47227;46.752;23.576;2023-05-21T09:32:56;96466.01;;;23.54;45.46
61357;BME280;47227;46.752;23.576;2023-05-21T09:35:26;96465.06;;;23.74;45.59
61357;BME280;47227;46.752;23.576;2023-05-21T09:37:54;96470.59;;;23.93;44.59
61357;BME280;47227;46.752;23.576;2023-05-21T09:40:24;96470.11;;;24.08;43.95
61357;BME280;47227;46.752;23.576;2023-05-21T09:42:53;96463.66;;;24.16;41.76
61357;BME280;47227;46.752;23.576;2023-05-21T09:45:23;96463.84;;;24.26;41.66
61357;BME280;47227;46.752;23.576;2023-05-21T09:47:56;96461.60;;;24.39;39.61
61357;BME280;47227;46.752;23.576;2023-05-21T09:50:25;96459.78;;;24.50;39.27
61357;BME280;47227;46.752;23.576;2023-05-21T09:52:55;96457.23;;;24.66;40.88
61357;BME280;47227;46.752;23.576;2023-05-21T09:55:24;96455.36;;;24.84;41.66
61357;BME280;47227;46.752;23.576;2023-05-21T09:57:53;96452.70;;;25.00;40.62
61357;BME280;47227;46.752;23.576;2023-05-21T10:00:24;96447.69;;;25.09;39.90
61357;BME280;47227;46.752;23.576;2023-05-21T10:02:55;96448.38;;;25.14;40.22
61357;BME280;47227;46.752;23.576;2023-05-21T10:05:25;96450.57;;;25.22;40.48
61357;BME280;47227;46.752;23.576;2023-05-21T10:07:59;96448.30;;;25.31;40.16
61357;BME280;47227;46.752;23.576;2023-05-21T10:10:31;96446.67;;;25.38;39.86
61357;BME280;47227;46.752;23.576;2023-05-21T10:13:03;96441.10;;;25.47;39.68
61357;BME280;47227;46.752;23.576;2023-05-21T10:15:37;96443.63;;;25.50;38.84
61357;BME280;47227;46.752;23.576;2023-05-21T10:18:17;96441.23;;;25.57;38.40
61357;BME280;47227;46.752;23.576;2023-05-21T10:21:46;96437.98;;;25.72;38.90
61357;BME280;47227;46.752;23.576;2023-05-21T10:24:24;96437.14;;;25.85;38.95
61357;BME280;47227;46.752;23.576;2023-05-21T10:26:52;96434.04;;;25.95;37.59
61357;BME280;47227;46.752;23.576;2023-05-21T10:29:21;96430.27;;;25.95;37.93
61357;BME280;47227;46.752;23.576;2023-05-21T10:31:51;96426.40;;;26.09;37.59
61357;BME280;47227;46.752;23.576;2023-05-21T10:34:20;96425.10;;;26.21;36.81
61357;BME280;47227;46.752;23.576;2023-05-21T10:36:51;96421.97;;;26.39;36.71
61357;BME280;47227;46.752;23.576;2023-05-21T10:39:21;96418.88;;;26.56;36.50
61357;BME280;47227;46.752;23.576;2023-05-21T10:42:10;96419.70;;;26.65;37.22
61357;BME280;47227;46.752;23.576;2023-05-21T10:44:55;96414.76;;;26.77;36.29
61357;BME280;47227;46.752;23.576;2023-05-21T10:47:44;96416.83;;;26.80;35.04
61357;BME280;47227;46.752;23.576;2023-05-21T10:53:43;96412.97;;;26.63;34.49
61357;BME280;47227;46.752;23.576;2023-05-21T10:56:22;96409.10;;;26.99;35.11
61357;BME280;47227;46.752;23.576;2023-05-21T11:01:49;96406.59;;;27.72;33.71
61357;BME280;47227;46.752;23.576;2023-05-21T11:04:25;96408.77;;;27.97;33.35
61357;BME280;47227;46.752;23.576;2023-05-21T11:06:54;96405.13;;;28.30;33.84
61357;BME280;47227;46.752;23.576;2023-05-21T11:09:23;96405.43;;;28.47;31.86
61357;BME280;47227;46.752;23.576;2023-05-21T11:11:52;96408.02;;;28.58;32.06
61357;BME280;47227;46.752;23.576;2023-05-21T11:14:31;96406.48;;;28.89;31.76
61357;BME280;47227;46.752;23.576;2023-05-21T11:17:11;96400.84;;;29.19;30.97
61357;BME280;47227;46.752;23.576;2023-05-21T11:19:47;96400.20;;;29.46;30.72
61357;BME280;47227;46.752;23.576;2023-05-21T11:22:24;96396.08;;;29.74;30.17
61357;BME280;47227;46.752;23.576;2023-05-21T11:24:55;96396.03;;;29.91;29.68
61357;BME280;47227;46.752;23.576;2023-05-21T11:27:40;96389.42;;;30.10;29.48
61357;BME280;47227;46.752;23.576;2023-05-21T11:30:13;96389.39;;;30.22;28.86
61357;BME280;47227;46.752;23.576;2023-05-21T11:33:16;96393.39;;;30.34;29.32
61357;BME280;47227;46.752;23.576;2023-05-21T11:35:56;96393.10;;;30.55;27.97
61357;BME280;47227;46.752;23.576;2023-05-21T11:38:28;96386.06;;;30.84;27.41
61357;BME280;47227;46.752;23.576;2023-05-21T11:41:02;96381.69;;;31.01;27.00
61357;BME280;47227;46.752;23.576;2023-05-21T11:43:30;96381.89;;;31.09;26.79
61357;BME280;47227;46.752;23.576;2023-05-21T11:45:59;96376.23;;;31.07;26.56
61357;BME280;47227;46.752;23.576;2023-05-21T11:48:32;96374.89;;;30.83;27.34
61357;BME280;47227;46.752;23.576;2023-05-21T11:51:00;96370.56;;;31.36;27.47
61357;BME280;47227;46.752;23.576;2023-05-21T11:53:29;96372.10;;;31.93;27.25
61357;BME280;47227;46.752;23.576;2023-05-21T11:55:57;96372.02;;;32.32;26.41
61357;BME280;47227;46.752;23.576;2023-05-21T11:58:30;96369.94;;;32.48;26.27
61357;BME280;47227;46.752;23.576;2023-05-21T12:00:57;96367.05;;;32.23;25.73
61357;BME280;47227;46.752;23.576;2023-05-21T12:03:25;96366.24;;;32.02;26.27
61357;BME280;47227;46.752;23.576;2023-05-21T12:05:54;96358.42;;;31.85;26.27
61357;BME280;47227;46.752;23.576;2023-05-21T12:08:32;96356.28;;;31.47;26.20
61357;BME280;47227;46.752;23.576;2023-05-21T12:11:00;96353.17;;;31.13;27.34
61357;BME280;47227;46.752;23.576;2023-05-21T12:13:29;96353.85;;;30.83;27.52
61357;BME280;47227;46.752;23.576;2023-05-21T12:15:57;96354.78;;;30.62;27.73
61357;BME280;47227;46.752;23.576;2023-05-21T12:18:25;96349.77;;;30.28;28.22
61357;BME280;47227;46.752;23.576;2023-05-21T12:20:53;96352.12;;;30.13;28.49
61357;BME280;47227;46.752;23.576;2023-05-21T12:23:22;96350.09;;;30.10;28.56
61357;BME280;47227;46.752;23.576;2023-05-21T12:25:51;96350.91;;;30.08;28.37
61357;BME280;47227;46.752;23.576;2023-05-21T12:28:21;96347.52;;;30.08;28.53
61357;BME280;47227;46.752;23.576;2023-05-21T12:30:51;96346.60;;;30.34;28.33
61357;BME280;47227;46.752;23.576;2023-05-21T12:33:20;96341.41;;;30.74;28.36
61357;BME280;47227;46.752;23.576;2023-05-21T12:35:51;96339.04;;;31.17;27.72
61357;BME280;47227;46.752;23.576;2023-05-21T12:38:20;96339.58;;;31.51;26.61
61357;BME280;47227;46.752;23.576;2023-05-21T12:40:48;96337.79;;;32.07;27.46
61357;BME280;47227;46.752;23.576;2023-05-21T12:43:16;96335.65;;;32.44;26.22
61357;BME280;47227;46.752;23.576;2023-05-21T12:45:44;96332.31;;;32.62;25.63
61357;BME280;47227;46.752;23.576;2023-05-21T12:48:12;96328.21;;;33.01;25.29
61357;BME280;47227;46.752;23.576;2023-05-21T12:50:41;96322.90;;;33.36;24.91
61357;BME280;47227;46.752;23.576;2023-05-21T12:53:10;96319.49;;;33.05;23.82
61357;BME280;47227;46.752;23.576;2023-05-21T12:55:39;96325.35;;;32.97;23.69
61357;BME280;47227;46.752;23.576;2023-05-21T12:58:11;96323.02;;;32.99;22.83
61357;BME280;47227;46.752;23.576;2023-05-21T13:00:41;96320.94;;;32.89;22.22
61357;BME280;47227;46.752;23.576;2023-05-21T13:03:10;96319.19;;;32.64;22.81
61357;BME280;47227;46.752;23.576;2023-05-21T13:05:39;96317.73;;;32.43;23.58
61357;BME280;47227;46.752;23.576;2023-05-21T13:08:08;96321.53;;;32.16;23.99
61357;BME280;47227;46.752;23.576;2023-05-21T13:10:37;96314.86;;;32.22;24.34
61357;BME280;47227;46.752;23.576;2023-05-21T13:13:05;96315.48;;;32.55;24.26
61357;BME280;47227;46.752;23.576;2023-05-21T13:15:33;96310.90;;;32.39;23.31
61357;BME280;47227;46.752;23.576;2023-05-21T13:18:02;96308.74;;;32.46;23.26
61357;BME280;47227;46.752;23.576;2023-05-21T13:20:30;96304.49;;;31.15;24.40
61357;BME280;47227;46.752;23.576;2023-05-21T13:22:58;96304.27;;;31.04;24.69
61357;BME280;47227;46.752;23.576;2023-05-21T13:25:26;96307.84;;;32.10;24.61
61357;BME280;47227;46.752;23.576;2023-05-21T13:27:56;96303.46;;;32.88;23.70
61357;BME280;47227;46.752;23.576;2023-05-21T13:30:25;96298.56;;;33.56;22.69
61357;BME280;47227;46.752;23.576;2023-05-21T13:32:53;96300.11;;;34.11;22.16
61357;BME280;47227;46.752;23.576;2023-05-21T13:35:22;96297.20;;;34.43;21.88
61357;BME280;47227;46.752;23.576;2023-05-21T13:37:50;96299.72;;;34.96;22.35
61357;BME280;47227;46.752;23.576;2023-05-21T13:40:18;96298.11;;;35.48;22.46
61357;BME280;47227;46.752;23.576;2023-05-21T13:42:48;96298.54;;;35.84;21.78
61357;BME280;47227;46.752;23.576;2023-05-21T13:45:36;96294.16;;;36.11;21.13
61357;BME280;47227;46.752;23.576;2023-05-21T13:48:25;96296.52;;;36.32;20.59
61357;BME280;47227;46.752;23.576;2023-05-21T13:50:54;96292.83;;;36.55;20.49
61357;BME280;47227;46.752;23.576;2023-05-21T13:53:23;96296.27;;;36.94;20.13
61357;BME280;47227;46.752;23.576;2023-05-21T13:55:51;96295.02;;;37.19;19.60
61357;BME280;47227;46.752;23.576;2023-05-21T13:58:22;96292.30;;;37.41;20.18
61357;BME280;47227;46.752;23.576;2023-05-21T14:01:30;96291.64;;;37.58;19.73
61357;BME280;47227;46.752;23.576;2023-05-21T14:03:59;96297.05;;;37.30;19.14
61357;BME280;47227;46.752;23.576;2023-05-21T14:06:31;96296.02;;;37.30;19.19
61357;BME280;47227;46.752;23.576;2023-05-21T14:08:59;96288.63;;;37.63;19.01
61357;BME280;47227;46.752;23.576;2023-05-21T14:11:27;96282.71;;;37.62;18.29
61357;BME280;47227;46.752;23.576;2023-05-21T14:13:55;96284.33;;;37.77;17.93
61357;BME280;47227;46.752;23.576;2023-05-21T14:16:26;96284.19;;;37.94;17.41
61357;BME280;47227;46.752;23.576;2023-05-21T14:18:56;96281.55;;;38.07;17.38
61357;BME280;47227;46.752;23.576;2023-05-21T14:21:25;96284.23;;;38.27;17.13
61357;BME280;47227;46.752;23.576;2023-05-21T14:23:53;96286.90;;;38.27;16.88
61357;BME280;47227;46.752;23.576;2023-05-21T14:26:21;96285.09;;;38.12;16.97
61357;BME280;47227;46.752;23.576;2023-05-21T14:28:49;96283.27;;;38.25;17.14
61357;BME280;47227;46.752;23.576;2023-05-21T14:31:17;96285.21;;;38.36;17.04
61357;BME280;47227;46.752;23.576;2023-05-21T14:33:45;96285.30;;;38.55;16.92
61357;BME280;47227;46.752;23.576;2023-05-21T14:36:14;96285.59;;;38.67;17.02
61357;BME280;47227;46.752;23.576;2023-05-21T14:38:42;96280.81;;;38.55;16.48
61357;BME280;47227;46.752;23.576;2023-05-21T14:41:10;96277.86;;;38.72;16.48
61357;BME280;47227;46.752;23.576;2023-05-21T14:43:38;96275.41;;;38.73;16.34
61357;BME280;47227;46.752;23.576;2023-05-21T14:46:06;96269.13;;;38.79;16.41
61357;BME280;47227;46.752;23.576;2023-05-21T14:48:34;96269.23;;;39.02;16.33
61357;BME280;47227;46.752;23.576;2023-05-21T14:51:02;96263.58;;;38.88;15.97
61357;BME280;47227;46.752;23.576;2023-05-21T14:53:30;96262.61;;;38.82;16.19
61357;BME280;47227;46.752;23.576;2023-05-21T14:55:58;96259.42;;;38.99;15.76
61357;BME280;47227;46.752;23.576;2023-05-21T14:58:26;96257.13;;;38.98;16.29
61357;BME280;47227;46.752;23.576;2023-05-21T15:00:54;96252.94;;;39.01;16.22
61357;BME280;47227;46.752;23.576;2023-05-21T15:03:23;96261.27;;;38.44;15.98
61357;BME280;47227;46.752;23.576;2023-05-21T15:05:51;96264.29;;;37.88;15.97
61357;BME280;47227;46.752;23.576;2023-05-21T15:08:19;96260.98;;;38.16;15.89
61357;BME280;47227;46.752;23.576;2023-05-21T15:10:47;96259.27;;;37.82;16.56
61357;BME280;47227;46.752;23.576;2023-05-21T15:13:14;96257.09;;;36.34;17.27
61357;BME280;47227;46.752;23.576;2023-05-21T15:15:42;96257.89;;;35.01;18.99
61357;BME280;47227;46.752;23.576;2023-05-21T15:18:11;96264.40;;;33.32;24.71
61357;BME280;47227;46.752;23.576;2023-05-21T15:20:39;96265.48;;;30.95;30.37
61357;BME280;47227;46.752;23.576;2023-05-21T15:23:07;96271.06;;;28.77;34.72
61357;BME280;47227;46.752;23.576;2023-05-21T15:25:44;96277.60;;;27.31;39.57
61357;BME280;47227;46.752;23.576;2023-05-21T15:28:12;96273.30;;;26.38;40.41
61357;BME280;47227;46.752;23.576;2023-05-21T15:30:40;96262.56;;;25.74;41.56
61357;BME280;47227;46.752;23.576;2023-05-21T15:33:08;96255.73;;;25.11;40.72
61357;BME280;47227;46.752;23.576;2023-05-21T15:35:37;96252.64;;;24.88;40.84
61357;BME280;47227;46.752;23.576;2023-05-21T15:38:06;96245.64;;;24.30;40.40
61357;BME280;47227;46.752;23.576;2023-05-21T15:40:34;96244.76;;;23.88;39.51
61357;BME280;47227;46.752;23.576;2023-05-21T15:43:02;96244.45;;;23.60;39.24
61357;BME280;47227;46.752;23.576;2023-05-21T15:45:30;96246.88;;;23.69;39.32
61357;BME280;47227;46.752;23.576;2023-05-21T15:47:58;96249.45;;;23.72;39.80
61357;BME280;47227;46.752;23.576;2023-05-21T15:50:26;96252.23;;;23.57;42.73
61357;BME280;47227;46.752;23.576;2023-05-21T15:52:54;96254.27;;;23.31;43.66
61357;BME280;47227;46.752;23.576;2023-05-21T15:55:22;96253.05;;;23.14;42.43
61357;BME280;47227;46.752;23.576;2023-05-21T15:57:50;96253.45;;;23.02;41.16
61357;BME280;47227;46.752;23.576;2023-05-21T16:00:18;96255.50;;;22.91;40.59
61357;BME280;47227;46.752;23.576;2023-05-21T16:02:46;96255.45;;;22.83;41.15
61357;BME280;47227;46.752;23.576;2023-05-21T16:05:15;96255.09;;;22.80;42.23
61357;BME280;47227;46.752;23.576;2023-05-21T16:07:42;96254.46;;;23.03;42.39
61357;BME280;47227;46.752;23.576;2023-05-21T16:10:20;96248.44;;;23.37;40.79
61357;BME280;47227;46.752;23.576;2023-05-21T16:12:48;96246.34;;;23.39;39.86
61357;BME280;47227;46.752;23.576;2023-05-21T16:15:16;96245.56;;;23.25;40.07
61357;BME280;47227;46.752;23.576;2023-05-21T16:17:44;96239.41;;;23.06;39.99
61357;BME280;47227;46.752;23.576;2023-05-21T16:20:13;96242.77;;;22.89;40.29
61357;BME280;47227;46.752;23.576;2023-05-21T16:22:41;96240.61;;;22.74;41.40
61357;BME280;47227;46.752;23.576;2023-05-21T16:25:09;96239.41;;;22.52;43.07
61357;BME280;47227;46.752;23.576;2023-05-21T16:27:36;96238.66;;;22.49;43.37
61357;BME280;47227;46.752;23.576;2023-05-21T16:30:05;96238.45;;;22.70;43.39
61357;BME280;47227;46.752;23.576;2023-05-21T16:32:34;96237.52;;;22.65;42.12
61357;BME280;47227;46.752;23.576;2023-05-21T16:35:02;96239.61;;;22.60;41.47
61357;BME280;47227;46.752;23.576;2023-05-21T16:37:30;96244.21;;;22.50;42.31
61357;BME280;47227;46.752;23.576;2023-05-21T16:39:58;96246.73;;;22.40;42.34
61357;BME280;47227;46.752;23.576;2023-05-21T16:42:25;96248.85;;;22.31;42.93
61357;BME280;47227;46.752;23.576;2023-05-21T16:44:54;96253.73;;;22.25;43.14
61357;BME280;47227;46.752;23.576;2023-05-21T16:47:22;96256.48;;;22.15;43.30
61357;BME280;47227;46.752;23.576;2023-05-21T16:49:50;96261.17;;;22.02;43.58
61357;BME280;47227;46.752;23.576;2023-05-21T16:52:18;96262.15;;;21.90;43.70